createdAt,value
2018-06-01T00:01:50.019Z,6.80
2018-06-01T00:04:17.703Z,6.70
2018-06-01T00:06:45.437Z,6.40
2018-06-01T00:09:16.958Z,6.50
2018-06-01T00:11:44.582Z,6.73
2018-06-01T00:14:12.930Z,7.00
2018-06-01T00:16:41.170Z,7.27
2018-06-01T00:19:09.565Z,6.97
2018-06-01T00:21:37.356Z,7.00
2018-06-01T00:24:04.984Z,7.43
2018-06-01T00:26:33.341Z,8.93
2018-06-01T00:29:04.770Z,6.90
2018-06-01T00:31:32.375Z,7.97
2018-06-01T00:33:59.968Z,7.23
2018-06-01T00:36:27.677Z,8.40
2018-06-01T00:38:55.339Z,8.07
2018-06-01T00:41:23.093Z,7.73
2018-06-01T00:43:50.727Z,7.80
2018-06-01T00:46:19.115Z,7.67
2018-06-01T00:48:47.439Z,8.13
2018-06-01T00:51:15.021Z,7.20
2018-06-01T00:53:42.625Z,7.13
2018-06-01T00:56:11.117Z,6.20
2018-06-01T00:58:39.542Z,7.00
2018-06-01T01:01:07.240Z,6.77
2018-06-01T01:03:34.853Z,6.30
2018-06-01T01:06:06.590Z,6.50
2018-06-01T01:08:34.235Z,5.30
2018-06-01T01:11:01.806Z,5.73
2018-06-01T01:13:29.397Z,5.57
2018-06-01T01:15:57.930Z,5.47
2018-06-01T01:18:25.548Z,4.87
2018-06-01T01:20:53.181Z,5.90
2018-06-01T01:23:20.743Z,5.80
2018-06-01T01:25:49.474Z,4.10
2018-06-01T01:28:17.367Z,5.00
2018-06-01T01:30:45.017Z,4.90
2018-06-01T01:33:12.635Z,4.20
2018-06-01T01:35:40.994Z,4.73
2018-06-01T01:38:08.571Z,4.50
2018-06-01T01:40:36.118Z,4.63
2018-06-01T01:43:04.479Z,4.20
2018-06-01T01:45:32.806Z,5.00
2018-06-01T01:48:00.396Z,5.43
2018-06-01T01:50:27.985Z,5.00
2018-06-01T01:52:55.725Z,6.10
2018-06-01T01:55:23.483Z,4.83
2018-06-01T01:57:51.942Z,5.27
2018-06-01T02:00:19.538Z,5.30
2018-06-01T02:02:47.652Z,5.20
2018-06-01T02:05:15.379Z,5.40
2018-06-01T02:07:43.054Z,5.37
2018-06-01T02:10:10.976Z,4.80
2018-06-01T02:12:38.529Z,5.07
2018-06-01T02:15:06.769Z,4.83
2018-06-01T02:17:34.896Z,4.40
2018-06-01T02:20:04.351Z,6.27
2018-06-01T02:22:31.926Z,5.10
2018-06-01T02:24:59.513Z,4.90
2018-06-01T02:27:27.143Z,4.93
2018-06-01T02:29:54.685Z,4.60
2018-06-01T02:32:23.051Z,5.10
2018-06-01T02:34:50.644Z,4.80
2018-06-01T02:37:18.996Z,4.70
2018-06-01T02:39:46.600Z,5.03
2018-06-01T02:42:14.178Z,4.73
2018-06-01T02:44:41.769Z,4.40
2018-06-01T02:47:09.337Z,5.60
2018-06-01T02:49:37.446Z,5.00
2018-06-01T02:52:05.830Z,4.77
2018-06-01T02:54:33.803Z,4.27
2018-06-01T02:57:01.428Z,4.50
2018-06-01T02:59:29.023Z,3.97
2018-06-01T03:01:56.638Z,4.50
2018-06-01T03:04:24.989Z,4.60
2018-06-01T03:07:18.390Z,4.03
2018-06-01T03:09:47.719Z,4.60
2018-06-01T03:12:15.290Z,3.77
2018-06-01T03:14:42.912Z,3.53
2018-06-01T03:17:10.515Z,4.00
2018-06-01T03:19:38.429Z,4.40
2018-06-01T03:22:06.059Z,4.33
2018-06-01T03:24:33.822Z,4.67
2018-06-01T03:27:01.913Z,5.07
2018-06-01T03:29:29.623Z,5.10
2018-06-01T03:31:57.221Z,4.47
2018-06-01T03:34:25.583Z,4.40
2018-06-01T03:36:53.181Z,4.83
2018-06-01T03:39:21.649Z,4.40
2018-06-01T03:41:49.238Z,4.10
2018-06-01T03:44:17.593Z,4.40
2018-06-01T03:46:45.203Z,4.80
2018-06-01T03:49:12.892Z,5.10
2018-06-01T03:51:40.479Z,4.80
2018-06-01T03:54:08.170Z,4.20
2018-06-01T03:56:36.630Z,4.50
2018-06-01T03:59:05.299Z,4.73
2018-06-01T04:01:32.927Z,4.80
2018-06-01T04:04:01.287Z,6.00
2018-06-01T04:06:28.900Z,4.80
2018-06-01T04:08:56.463Z,5.17
2018-06-01T04:11:24.984Z,5.40
2018-06-01T04:13:52.551Z,4.90
2018-06-01T04:16:20.247Z,6.00
2018-06-01T04:18:47.869Z,5.10
2018-06-01T04:21:15.548Z,4.80
2018-06-01T04:23:43.134Z,5.20
2018-06-01T04:26:10.899Z,4.87
2018-06-01T04:28:38.548Z,4.97
2018-06-01T04:31:06.233Z,5.00
2018-06-01T04:33:34.616Z,5.57
2018-06-01T04:36:03.408Z,7.10
2018-06-01T04:38:31.138Z,5.27
2018-06-01T04:40:58.695Z,5.63
2018-06-01T04:43:27.196Z,4.57
2018-06-01T04:45:54.768Z,4.67
2018-06-01T04:48:22.491Z,5.03
2018-06-01T04:50:50.148Z,4.83
2018-06-01T04:53:17.899Z,4.70
2018-06-01T04:55:45.516Z,4.10
2018-06-01T04:58:13.872Z,4.90
2018-06-01T05:00:42.279Z,5.50
2018-06-01T05:03:10.468Z,5.10
2018-06-01T05:05:38.975Z,5.10
2018-06-01T05:08:07.354Z,4.90
2018-06-01T05:10:34.958Z,4.73
2018-06-01T05:13:04.575Z,4.50
2018-06-01T05:15:32.380Z,4.77
2018-06-01T05:17:59.967Z,4.63
2018-06-01T05:20:29.308Z,4.70
2018-06-01T05:22:57.505Z,5.20
2018-06-01T05:25:25.115Z,4.70
2018-06-01T05:27:52.849Z,4.90
2018-06-01T05:30:20.579Z,5.33
2018-06-01T05:32:48.227Z,4.83
2018-06-01T05:35:17.656Z,4.90
2018-06-01T05:37:45.217Z,4.63
2018-06-01T05:40:12.933Z,5.57
2018-06-01T05:42:40.539Z,5.00
2018-06-01T05:45:08.982Z,5.10
2018-06-01T05:47:36.580Z,5.50
2018-06-01T05:50:04.923Z,5.00
2018-06-01T05:52:32.685Z,4.53
2018-06-01T05:55:00.827Z,5.37
2018-06-01T05:57:29.149Z,6.00
2018-06-01T05:59:56.816Z,5.20
2018-06-01T06:02:24.479Z,6.20
2018-06-01T06:04:52.404Z,6.20
2018-06-01T06:07:20.863Z,6.03
2018-06-01T06:09:48.599Z,5.60
2018-06-01T06:12:16.191Z,5.57
2018-06-01T06:14:43.821Z,6.90
2018-06-01T06:17:12.228Z,6.60
2018-06-01T06:19:39.802Z,5.20
2018-06-01T06:22:07.357Z,8.43
2018-06-01T06:24:35.091Z,6.70
2018-06-01T06:27:03.638Z,8.17
2018-06-01T06:29:31.385Z,6.93
2018-06-01T06:31:58.999Z,7.60
2018-06-01T06:34:26.581Z,6.07
2018-06-01T06:36:54.186Z,6.10
2018-06-01T06:39:21.822Z,6.60
2018-06-01T06:41:50.444Z,6.57
2018-06-01T06:44:18.704Z,7.10
2018-06-01T06:46:47.241Z,7.90
2018-06-01T06:49:15.624Z,6.50
2018-06-01T06:51:44.010Z,7.13
2018-06-01T06:54:11.662Z,6.53
2018-06-01T06:56:40.295Z,7.20
2018-06-01T06:59:07.885Z,6.40
2018-06-01T07:01:35.696Z,7.43
2018-06-01T07:04:03.254Z,6.57
2018-06-01T07:06:30.901Z,7.37
2018-06-01T07:08:58.480Z,6.53
2018-06-01T07:11:26.082Z,7.00
2018-06-01T07:13:55.736Z,5.33
2018-06-01T07:16:24.120Z,6.13
2018-06-01T07:18:52.476Z,5.87
2018-06-01T07:21:20.083Z,4.97
2018-06-01T07:23:47.748Z,4.70
2018-06-01T07:26:16.327Z,4.37
2018-06-01T07:28:43.916Z,4.67
2018-06-01T07:31:11.459Z,4.93
2018-06-01T07:33:40.951Z,4.50
2018-06-01T07:36:08.541Z,4.40
2018-06-01T07:38:37.466Z,4.20
2018-06-01T07:41:05.093Z,5.63
2018-06-01T07:43:33.548Z,4.00
2018-06-01T07:46:01.220Z,3.97
2018-06-01T07:48:28.820Z,4.57
2018-06-01T07:50:57.262Z,4.97
2018-06-01T07:53:24.914Z,3.80
2018-06-01T07:55:52.567Z,4.10
2018-06-01T07:58:20.299Z,4.33
2018-06-01T08:00:47.932Z,4.20
2018-06-01T08:03:16.323Z,4.30
2018-06-01T08:05:43.881Z,4.40
2018-06-01T08:08:12.584Z,4.87
2018-06-01T08:10:40.314Z,3.57
2018-06-01T08:13:08.305Z,4.40
2018-06-01T08:15:35.923Z,4.37
2018-06-01T08:18:03.543Z,4.10
2018-06-01T08:20:31.735Z,4.80
2018-06-01T08:22:59.291Z,3.90
2018-06-01T08:25:26.902Z,4.60
2018-06-01T08:27:54.545Z,4.67
2018-06-01T08:30:22.197Z,4.10
2018-06-01T08:32:49.852Z,4.80
2018-06-01T08:35:17.413Z,3.50
2018-06-01T08:37:45.542Z,4.30
2018-06-01T08:40:13.119Z,3.80
2018-06-01T08:42:41.474Z,4.60
2018-06-01T08:45:09.194Z,4.20
2018-06-01T08:47:36.756Z,4.63
2018-06-01T08:50:05.100Z,4.83
2018-06-01T08:52:32.823Z,4.63
2018-06-01T08:55:00.407Z,3.87
2018-06-01T08:57:28.033Z,4.10
2018-06-01T08:59:56.350Z,3.90
2018-06-01T09:02:24.094Z,2.97
2018-06-01T09:04:52.480Z,4.40
2018-06-01T09:07:20.301Z,6.23
2018-06-01T09:09:47.878Z,5.40
2018-06-01T09:12:15.476Z,4.07
2018-06-01T09:14:43.953Z,4.33
2018-06-01T09:17:11.543Z,3.83
2018-06-01T09:19:39.170Z,3.27
2018-06-01T09:22:06.775Z,4.50
2018-06-01T09:24:35.189Z,3.87
2018-06-01T09:27:02.831Z,3.90
2018-06-01T09:29:30.852Z,3.40
2018-06-01T09:31:59.184Z,3.87
2018-06-01T09:34:27.566Z,3.30
2018-06-01T09:36:55.193Z,3.90
2018-06-01T09:39:22.788Z,4.40
2018-06-01T09:41:50.393Z,4.27
2018-06-01T09:44:18.138Z,4.43
2018-06-01T09:46:46.585Z,5.03
2018-06-01T09:49:14.254Z,3.27
2018-06-01T09:51:41.867Z,4.00
2018-06-01T09:54:09.487Z,3.90
2018-06-01T09:56:37.113Z,3.70
2018-06-01T09:59:05.043Z,4.13
2018-06-01T10:01:32.628Z,3.47
2018-06-01T10:04:01.250Z,4.53
2018-06-01T10:06:29.829Z,3.70
2018-06-01T10:08:57.384Z,3.90
2018-06-01T10:11:25.936Z,4.67
2018-06-01T10:13:53.588Z,3.60
2018-06-01T10:16:21.149Z,3.40
2018-06-01T10:18:48.793Z,3.10
2018-06-01T10:21:17.400Z,2.73
2018-06-01T10:23:45.029Z,3.53
2018-06-01T10:26:13.456Z,3.20
2018-06-01T10:28:41.108Z,2.63
2018-06-01T10:31:09.360Z,2.77
2018-06-01T10:33:36.942Z,2.93
2018-06-01T10:36:05.454Z,3.10
2018-06-01T10:38:33.059Z,3.30
2018-06-01T10:41:00.639Z,2.67
2018-06-01T10:43:28.662Z,2.97
2018-06-01T10:45:56.251Z,2.87
2018-06-01T10:48:23.829Z,3.00
2018-06-01T10:50:51.566Z,2.93
2018-06-01T10:53:19.154Z,3.40
2018-06-01T10:55:46.859Z,2.90
2018-06-01T10:58:15.417Z,3.60
2018-06-01T11:00:43.090Z,3.17
2018-06-01T11:03:10.724Z,3.50
2018-06-01T11:05:38.490Z,3.33
2018-06-01T11:08:06.360Z,3.17
2018-06-01T11:10:33.916Z,3.23
2018-06-01T11:13:01.575Z,3.30
2018-06-01T11:15:30.171Z,4.47
2018-06-01T11:17:58.507Z,3.87
2018-06-01T11:20:26.150Z,4.03
2018-06-01T11:22:53.844Z,3.80
2018-06-01T11:25:21.472Z,3.60
2018-06-01T11:27:49.058Z,3.90
2018-06-01T11:30:16.785Z,4.10
2018-06-01T11:32:45.091Z,3.53
2018-06-01T11:35:12.687Z,4.20
2018-06-01T11:37:41.135Z,3.73
2018-06-01T11:40:08.719Z,4.27
2018-06-01T11:42:37.255Z,3.20
2018-06-01T11:45:05.121Z,3.73
2018-06-01T11:47:32.780Z,3.80
2018-06-01T11:50:00.419Z,4.30
2018-06-01T11:52:28.001Z,3.77
2018-06-01T11:54:55.911Z,3.63
2018-06-01T11:57:23.607Z,3.20
2018-06-01T11:59:52.316Z,3.90
2018-06-01T12:02:20.034Z,4.20
2018-06-01T12:04:47.657Z,3.60
2018-06-01T12:07:15.442Z,4.20
2018-06-01T12:09:43.830Z,4.20
2018-06-01T12:12:12.186Z,3.70
2018-06-01T12:14:39.803Z,4.00
2018-06-01T12:17:07.598Z,3.30
2018-06-01T12:19:35.665Z,3.80
2018-06-01T12:22:03.301Z,3.87
2018-06-01T12:24:30.943Z,3.80
2018-06-01T12:26:58.633Z,3.83
2018-06-01T12:29:26.429Z,3.50
2018-06-01T12:31:54.810Z,3.80
2018-06-01T12:34:22.478Z,3.70
2018-06-01T12:36:50.396Z,4.60
2018-06-01T12:39:17.989Z,3.50
2018-06-01T12:41:45.561Z,4.13
2018-06-01T12:44:13.145Z,4.10
2018-06-01T12:46:40.771Z,4.60
2018-06-01T12:49:08.409Z,4.00
2018-06-01T12:51:36.040Z,4.50
2018-06-01T12:54:04.080Z,4.50
2018-06-01T12:56:32.090Z,4.60
2018-06-01T12:58:59.964Z,3.87
2018-06-01T13:01:28.079Z,4.23
2018-06-01T13:03:56.515Z,3.70
2018-06-01T13:06:24.090Z,3.83
2018-06-01T13:08:51.781Z,4.00
2018-06-01T13:11:19.463Z,4.30
2018-06-01T13:13:47.184Z,4.20
2018-06-01T13:16:15.241Z,4.37
2018-06-01T13:18:42.861Z,4.23
2018-06-01T13:21:10.711Z,3.57
2018-06-01T13:23:39.098Z,4.33
2018-06-01T13:26:07.003Z,4.87
2018-06-01T13:28:35.345Z,3.67
2018-06-01T13:31:02.945Z,4.27
2018-06-01T13:33:30.562Z,4.03
2018-06-01T13:35:58.215Z,5.13
2018-06-01T13:38:25.955Z,3.93
2018-06-01T13:40:53.579Z,4.20
2018-06-01T13:43:21.620Z,4.63
2018-06-01T13:45:49.936Z,4.07
2018-06-01T13:48:17.661Z,6.20
2018-06-01T13:50:45.312Z,4.33
2018-06-01T13:53:12.909Z,4.33
2018-06-01T13:55:41.393Z,4.47
2018-06-01T13:58:09.994Z,4.43
2018-06-01T14:00:37.603Z,4.37
2018-06-01T14:03:05.420Z,3.67
2018-06-01T14:05:34.278Z,3.73
2018-06-01T14:08:01.959Z,4.23
2018-06-01T14:10:29.574Z,4.07
2018-06-01T14:12:57.142Z,3.63
2018-06-01T14:15:24.740Z,5.60
2018-06-01T14:17:52.317Z,4.10
2018-06-01T14:20:19.995Z,4.87
2018-06-01T14:22:47.719Z,4.43
2018-06-01T14:25:15.383Z,4.00
2018-06-01T14:27:43.135Z,3.73
2018-06-01T14:30:10.734Z,3.80
2018-06-01T14:32:38.423Z,4.03
2018-06-01T14:35:06.105Z,4.10
2018-06-01T14:37:33.654Z,4.47
2018-06-01T14:40:01.441Z,3.90
2018-06-01T14:42:29.029Z,4.30
2018-06-01T14:44:57.447Z,3.47
2018-06-01T14:47:25.196Z,3.97
2018-06-01T14:49:53.554Z,3.43
2018-06-01T14:52:21.142Z,4.00
2018-06-01T14:54:49.500Z,3.87
2018-06-01T14:57:17.164Z,4.60
2018-06-01T14:59:44.793Z,4.60
2018-06-01T15:02:12.726Z,3.60
2018-06-01T15:04:41.066Z,4.00
2018-06-01T15:07:08.805Z,3.83
2018-06-01T15:09:36.601Z,4.60
2018-06-01T15:12:04.921Z,3.93
2018-06-01T15:14:32.874Z,3.83
2018-06-01T15:17:00.565Z,3.63
2018-06-01T15:19:28.158Z,3.30
2018-06-01T15:21:56.529Z,3.33
2018-06-01T15:24:24.202Z,4.80
2018-06-01T15:26:52.528Z,3.63
2018-06-01T15:29:21.035Z,3.53
2018-06-01T15:31:48.704Z,4.40
2018-06-01T15:34:16.304Z,3.60
2018-06-01T15:36:44.099Z,3.57
2018-06-01T15:39:12.509Z,3.80
2018-06-01T15:41:40.111Z,3.63
2018-06-01T15:44:08.473Z,3.70
2018-06-01T15:46:36.113Z,3.73
2018-06-01T15:49:03.759Z,4.20
2018-06-01T15:51:31.363Z,3.83
2018-06-01T15:53:58.969Z,3.33
2018-06-01T15:56:26.629Z,4.13
2018-06-01T15:58:54.629Z,4.00
2018-06-01T16:01:22.210Z,3.53
2018-06-01T16:03:50.569Z,3.67
2018-06-01T16:06:18.202Z,3.97
2018-06-01T16:08:45.928Z,4.60
2018-06-01T16:11:14.696Z,3.43
2018-06-01T16:13:42.281Z,3.30
2018-06-01T16:16:10.643Z,4.17
2018-06-01T16:18:38.291Z,3.50
2018-06-01T16:21:06.081Z,3.60
2018-06-01T16:23:34.394Z,3.57
2018-06-01T16:26:02.813Z,3.97
2018-06-01T16:28:30.440Z,4.00
2018-06-01T16:30:58.056Z,3.60
2018-06-01T16:33:25.717Z,3.50
2018-06-01T16:35:53.464Z,3.17
2018-06-01T16:38:21.854Z,4.00
2018-06-01T16:40:49.431Z,4.50
2018-06-01T16:43:17.126Z,3.70
2018-06-01T16:45:45.548Z,4.27
2018-06-01T16:48:15.206Z,3.87
2018-06-01T16:50:42.892Z,4.50
2018-06-01T16:53:10.464Z,4.50
2018-06-01T16:55:38.081Z,3.47
2018-06-01T16:58:06.484Z,3.60
2018-06-01T17:00:34.971Z,3.93
2018-06-01T17:03:03.566Z,3.80
2018-06-01T17:05:31.138Z,3.67
2018-06-01T17:07:58.807Z,3.87
2018-06-01T17:10:26.515Z,3.60
2018-06-01T17:12:54.151Z,3.50
2018-06-01T17:15:21.809Z,4.73
2018-06-01T17:17:49.378Z,4.20
2018-06-01T17:20:17.676Z,4.17
2018-06-01T17:22:45.328Z,4.63
2018-06-01T17:25:12.989Z,3.50
2018-06-01T17:27:40.567Z,4.30
2018-06-01T17:30:08.226Z,3.60
2018-06-01T17:32:35.868Z,3.43
2018-06-01T17:35:04.493Z,3.90
2018-06-01T17:37:32.870Z,3.93
2018-06-01T17:40:00.439Z,4.50
2018-06-01T17:42:28.088Z,4.27
2018-06-01T17:44:55.648Z,4.53
2018-06-01T17:47:24.070Z,4.70
2018-06-01T17:49:52.543Z,5.57
2018-06-01T17:52:20.465Z,4.60
2018-06-01T17:54:48.980Z,4.57
2018-06-01T17:57:17.631Z,4.60
2018-06-01T17:59:46.074Z,4.20
2018-06-01T18:02:13.935Z,4.80
2018-06-01T18:04:41.620Z,5.00
2018-06-01T18:07:09.431Z,4.50
2018-06-01T18:09:37.025Z,4.17
2018-06-01T18:12:05.500Z,4.13
2018-06-01T18:14:33.102Z,5.10
2018-06-01T18:17:00.661Z,5.20
2018-06-01T18:19:28.260Z,4.53
2018-06-01T18:21:55.827Z,4.77
2018-06-01T18:24:23.615Z,4.73
2018-06-01T18:26:51.191Z,3.47
2018-06-01T18:29:18.801Z,4.30
2018-06-01T18:31:47.162Z,4.90
2018-06-01T18:34:14.895Z,4.50
2018-06-01T18:36:42.735Z,4.97
2018-06-01T18:39:10.308Z,4.37
2018-06-01T18:41:37.875Z,4.53
2018-06-01T18:44:05.745Z,4.40
2018-06-01T18:46:33.359Z,4.87
2018-06-01T18:49:05.525Z,5.20
2018-06-01T18:51:33.161Z,4.33
2018-06-01T18:54:00.751Z,4.20
2018-06-01T18:56:28.394Z,4.80
2018-06-01T18:58:56.745Z,5.00
2018-06-01T19:01:25.238Z,5.30
2018-06-01T19:03:54.227Z,5.40
2018-06-01T19:06:21.872Z,5.10
2018-06-01T19:08:49.464Z,5.10
2018-06-01T19:11:17.388Z,5.23
2018-06-01T19:13:44.996Z,5.20
2018-06-01T19:16:13.419Z,5.37
2018-06-01T19:18:41.098Z,5.17
2018-06-01T19:21:08.699Z,6.60
2018-06-01T19:23:36.304Z,5.60
2018-06-01T19:26:04.295Z,5.70
2018-06-01T19:28:31.848Z,5.30
2018-06-01T19:31:00.316Z,5.83
2018-06-01T19:33:28.740Z,5.40
2018-06-01T19:35:56.453Z,5.37
2018-06-01T19:38:24.071Z,5.70
2018-06-01T19:40:51.675Z,6.77
2018-06-01T19:43:19.241Z,7.00
2018-06-01T19:45:46.883Z,6.83
2018-06-01T19:48:14.511Z,7.50
2018-06-01T19:50:42.885Z,7.20
2018-06-01T19:53:10.526Z,6.20
2018-06-01T19:55:38.935Z,6.77
2018-06-01T19:58:06.568Z,6.20
2018-06-01T20:00:34.155Z,6.40
2018-06-01T20:03:02.147Z,6.77
2018-06-01T20:05:30.602Z,6.70
2018-06-01T20:07:58.285Z,7.10
2018-06-01T20:10:25.928Z,7.47
2018-06-01T20:12:53.557Z,6.70
2018-06-01T20:15:21.945Z,6.70
2018-06-01T20:17:49.988Z,6.40
2018-06-01T20:20:18.974Z,6.50
2018-06-01T20:22:46.809Z,6.13
2018-06-01T20:25:14.664Z,5.90
2018-06-01T20:27:43.284Z,6.47
2018-06-01T20:30:10.969Z,6.63
2018-06-01T20:32:38.620Z,6.80
2018-06-01T20:35:06.393Z,6.47
2018-06-01T20:37:34.149Z,7.57
2018-06-01T20:40:03.864Z,6.23
2018-06-01T20:42:31.740Z,7.00
2018-06-01T20:44:59.904Z,6.67
2018-06-01T20:47:28.259Z,6.97
2018-06-01T20:49:55.884Z,6.50
2018-06-01T20:52:23.485Z,6.20
2018-06-01T20:54:51.221Z,6.83
2018-06-01T20:57:18.882Z,5.50
2018-06-01T20:59:46.486Z,7.50
2018-06-01T21:02:14.838Z,6.90
2018-06-01T21:04:42.742Z,6.47
2018-06-01T21:07:10.303Z,7.50
2018-06-01T21:09:38.019Z,7.40
2018-06-01T21:12:05.608Z,7.53
2018-06-01T21:14:33.251Z,7.60
2018-06-01T21:17:01.802Z,6.83
2018-06-01T21:19:29.517Z,6.83
2018-06-01T21:21:57.108Z,7.20
2018-06-01T21:24:24.787Z,7.50
2018-06-01T21:26:52.337Z,7.10
2018-06-01T21:29:19.904Z,6.93
2018-06-01T21:31:47.534Z,7.10
2018-06-01T21:34:15.922Z,6.80
2018-06-01T21:36:44.288Z,7.00
2018-06-01T21:39:12.246Z,7.83
2018-06-01T21:41:40.316Z,8.80
2018-06-01T21:44:07.996Z,8.53
2018-06-01T21:46:35.606Z,7.50
2018-06-01T21:49:03.186Z,7.40
2018-06-01T21:51:30.978Z,7.23
2018-06-01T21:53:58.706Z,7.77
2018-06-01T21:56:27.174Z,7.17
2018-06-01T21:58:54.791Z,7.90
2018-06-01T22:01:22.608Z,8.00
2018-06-01T22:03:51.047Z,8.13
2018-06-01T22:06:18.788Z,6.83
2018-06-01T22:08:46.402Z,7.67
2018-06-01T22:11:14.013Z,8.83
2018-06-01T22:13:42.473Z,7.10
2018-06-01T22:16:10.259Z,7.00
2018-06-01T22:18:37.886Z,6.73
2018-06-01T22:21:05.451Z,6.97
2018-06-01T22:23:33.006Z,6.60
2018-06-01T22:26:00.601Z,6.90
2018-06-01T22:28:28.320Z,6.10
2018-06-01T22:30:56.665Z,6.53
2018-06-01T22:33:24.264Z,6.50
2018-06-01T22:35:52.939Z,6.33
2018-06-01T22:38:20.648Z,6.23
2018-06-01T22:40:48.249Z,4.73
2018-06-01T22:43:15.825Z,6.07
2018-06-01T22:45:43.491Z,5.57
2018-06-01T22:48:11.168Z,5.87
2018-06-01T22:50:38.764Z,6.13
2018-06-01T22:53:06.488Z,5.90
2018-06-01T22:55:34.130Z,6.73
2018-06-01T22:58:03.720Z,6.90
2018-06-01T23:00:42.074Z,6.63
2018-06-01T23:03:09.648Z,6.60
2018-06-01T23:05:37.251Z,6.13
2018-06-01T23:08:05.634Z,6.70
2018-06-01T23:10:33.207Z,7.03
2018-06-01T23:13:01.617Z,6.53
2018-06-01T23:15:29.165Z,6.83
2018-06-01T23:17:57.514Z,5.97
2018-06-01T23:20:25.279Z,6.00
2018-06-01T23:22:52.870Z,6.47
2018-06-01T23:25:21.195Z,6.60
2018-06-01T23:27:48.775Z,6.23
2018-06-01T23:30:16.514Z,6.70
2018-06-01T23:32:44.088Z,6.37
2018-06-01T23:35:11.754Z,7.13
2018-06-01T23:37:39.323Z,7.00
2018-06-01T23:40:06.927Z,6.70
2018-06-01T23:42:34.551Z,6.77
2018-06-01T23:45:02.180Z,6.87
2018-06-01T23:47:29.823Z,7.00
2018-06-01T23:49:57.402Z,6.57
2018-06-01T23:52:25.031Z,6.50
2018-06-01T23:54:52.582Z,6.50
2018-06-01T23:57:21.399Z,7.50
2018-06-01T23:59:49.011Z,6.97
